Epsom, United Kingdom
Current Conditions -  °F | °C
As of 12:50 PM on Friday 19 Dec 2014 (Local Time) from EGKK Reporting Station
Few Clouds Few Clouds  
Wind Chill: 42°   Ceiling: Unl
Heat Index: 48°   Visibility: 6mi
Dew Point: 36°   Wind: 16mph
Humidity: 62%   Direction: 290°WNW
Pressure: 30.03"   Gusts: NA
Location:  51.33°N, 0.27°W
Report Text: EGKK 191250Z 29014KT 9999 FEW034 09/02 Q1017
Loading
Personal Weather Stations






























Interactive Weather Map New forecast layout! Learn more

10-Day Weather Forecast

Advertisements
Track Severe Weather on mobile